createdAt,value
2023-05-10T00:00:54.525Z,17.08
2023-05-10T00:03:20.975Z,17.08
2023-05-10T00:05:47.599Z,17.09
2023-05-10T00:08:14.143Z,17.04
2023-05-10T00:10:40.471Z,17.00
2023-05-10T00:13:06.855Z,16.98
2023-05-10T00:15:33.240Z,16.90
2023-05-10T00:17:59.593Z,16.88
2023-05-10T00:20:25.991Z,16.88
2023-05-10T00:22:52.333Z,16.86
2023-05-10T00:25:18.669Z,16.83
2023-05-10T00:27:45.109Z,16.81
2023-05-10T00:30:11.466Z,16.78
2023-05-10T00:32:37.898Z,16.76
2023-05-10T00:35:04.300Z,16.74
2023-05-10T00:37:30.632Z,16.71
2023-05-10T00:39:56.982Z,16.71
2023-05-10T00:42:23.383Z,16.74
2023-05-10T00:44:49.768Z,16.80
2023-05-10T00:47:16.155Z,16.77
2023-05-10T00:49:42.571Z,16.82
2023-05-10T00:52:08.913Z,16.73
2023-05-10T00:54:35.271Z,16.78
2023-05-10T00:57:01.688Z,16.79
2023-05-10T00:59:28.011Z,16.78
2023-05-10T01:01:54.345Z,16.73
2023-05-10T01:04:20.676Z,16.76
2023-05-10T01:06:47.017Z,16.80
2023-05-10T01:09:13.356Z,16.84
2023-05-10T01:11:39.768Z,16.83
2023-05-10T01:14:06.101Z,16.77
2023-05-10T01:16:32.481Z,16.73
2023-05-10T01:18:58.886Z,16.68
2023-05-10T01:21:25.230Z,16.69
2023-05-10T01:23:51.555Z,16.71
2023-05-10T01:26:17.871Z,16.72
2023-05-10T01:28:44.205Z,16.66
2023-05-10T01:31:10.557Z,16.63
2023-05-10T01:33:36.938Z,16.66
2023-05-10T01:36:03.391Z,16.68
2023-05-10T01:38:29.749Z,16.70
2023-05-10T01:40:56.087Z,16.72
2023-05-10T01:43:22.458Z,16.68
2023-05-10T01:45:48.796Z,16.70
2023-05-10T01:48:15.179Z,16.72
2023-05-10T01:50:41.510Z,16.76
2023-05-10T01:53:07.823Z,16.77
2023-05-10T01:55:34.137Z,16.79
2023-05-10T01:58:00.492Z,16.74
2023-05-10T02:00:26.932Z,16.69
2023-05-10T02:02:53.305Z,16.67
2023-05-10T02:05:19.755Z,16.69
2023-05-10T02:07:46.104Z,16.69
2023-05-10T02:10:12.454Z,16.65
2023-05-10T02:12:38.867Z,16.61
2023-05-10T02:15:05.202Z,16.50
2023-05-10T02:17:31.559Z,16.55
2023-05-10T02:19:57.948Z,16.53
2023-05-10T02:22:24.300Z,16.36
2023-05-10T02:24:50.649Z,16.46
2023-05-10T02:27:17.003Z,16.50
2023-05-10T02:29:43.401Z,16.55
2023-05-10T02:32:09.782Z,16.61
2023-05-10T02:34:36.432Z,16.63
2023-05-10T02:37:02.781Z,16.67
2023-05-10T02:39:29.144Z,16.55
2023-05-10T02:41:55.488Z,16.54
2023-05-10T02:44:21.858Z,16.54
2023-05-10T02:46:48.166Z,16.44
2023-05-10T02:49:14.519Z,16.37
2023-05-10T02:51:40.846Z,16.35
2023-05-10T02:54:07.222Z,16.36
2023-05-10T02:56:33.608Z,16.36
2023-05-10T02:58:59.961Z,16.38
2023-05-10T03:01:26.340Z,16.16
2023-05-10T03:03:52.693Z,16.20
2023-05-10T03:06:19.019Z,16.25
2023-05-10T03:08:45.365Z,16.02
2023-05-10T03:11:11.712Z,16.06
2023-05-10T03:13:38.033Z,16.22
2023-05-10T03:16:04.447Z,16.31
2023-05-10T03:18:30.787Z,16.34
2023-05-10T03:20:57.127Z,16.32
2023-05-10T03:23:23.457Z,16.38
2023-05-10T03:25:49.797Z,16.38
2023-05-10T03:28:16.139Z,16.39
2023-05-10T03:30:42.561Z,16.38
2023-05-10T03:33:08.989Z,16.18
2023-05-10T03:35:35.383Z,16.19
2023-05-10T03:38:01.716Z,15.92
2023-05-10T03:40:28.046Z,16.00
2023-05-10T03:42:54.398Z,16.19
2023-05-10T03:45:20.735Z,15.77
2023-05-10T03:47:47.087Z,15.16
2023-05-10T03:50:13.422Z,14.90
2023-05-10T03:52:39.752Z,14.80
2023-05-10T03:55:06.129Z,14.59
2023-05-10T03:57:32.512Z,14.59
2023-05-10T03:59:58.830Z,14.40
2023-05-10T04:02:25.335Z,13.99
2023-05-10T04:04:51.825Z,14.02
2023-05-10T04:07:18.144Z,14.08
2023-05-10T04:09:44.503Z,13.78
2023-05-10T04:12:11.128Z,13.99
2023-05-10T04:14:37.550Z,13.72
2023-05-10T04:17:03.885Z,13.91
2023-05-10T04:19:30.359Z,13.85
2023-05-10T04:21:56.677Z,14.27
2023-05-10T04:24:22.987Z,14.46
2023-05-10T04:26:49.307Z,14.17
2023-05-10T04:29:15.718Z,14.19
2023-05-10T04:31:42.037Z,14.17
2023-05-10T04:34:08.365Z,14.04
2023-05-10T04:36:34.691Z,13.96
2023-05-10T04:39:01.468Z,14.20
2023-05-10T04:41:27.865Z,14.01
2023-05-10T04:43:54.299Z,13.72
2023-05-10T04:46:20.724Z,14.06
2023-05-10T04:48:47.103Z,13.82
2023-05-10T04:51:13.511Z,13.79
2023-05-10T04:53:39.879Z,13.57
2023-05-10T04:56:06.256Z,13.78
2023-05-10T04:58:32.593Z,14.04
2023-05-10T05:00:58.949Z,14.21
2023-05-10T05:03:25.411Z,14.26
2023-05-10T05:05:51.821Z,14.38
2023-05-10T05:08:18.166Z,14.39
2023-05-10T05:10:44.485Z,14.30
2023-05-10T05:13:10.853Z,14.47
2023-05-10T05:15:37.256Z,14.53
2023-05-10T05:18:03.623Z,14.52
2023-05-10T05:20:30.050Z,14.49
2023-05-10T05:22:56.379Z,14.47
2023-05-10T05:25:22.714Z,14.35
2023-05-10T05:27:49.075Z,14.45
2023-05-10T05:30:15.670Z,14.51
2023-05-10T05:32:42.178Z,14.56
2023-05-10T05:35:08.557Z,14.64
2023-05-10T05:37:34.915Z,14.68
2023-05-10T05:40:01.260Z,14.76
2023-05-10T05:42:27.594Z,14.75
2023-05-10T05:44:53.929Z,14.84
2023-05-10T05:47:20.262Z,14.85
2023-05-10T05:49:46.587Z,14.87
2023-05-10T05:52:12.902Z,14.87
2023-05-10T05:54:39.211Z,14.93
2023-05-10T05:57:05.548Z,14.91
2023-05-10T05:59:31.902Z,14.95
2023-05-10T06:01:58.257Z,14.90
2023-05-10T06:04:24.612Z,14.95
2023-05-10T06:06:50.943Z,14.94
2023-05-10T06:09:17.331Z,14.92
2023-05-10T06:11:43.702Z,14.69
2023-05-10T06:14:10.042Z,14.69
2023-05-10T06:16:36.435Z,14.77
2023-05-10T06:19:02.799Z,14.88
2023-05-10T06:21:29.132Z,14.86
2023-05-10T06:23:55.467Z,14.82
2023-05-10T06:26:21.835Z,14.82
2023-05-10T06:28:48.170Z,14.82
2023-05-10T06:31:14.510Z,14.81
2023-05-10T06:33:40.895Z,14.79
2023-05-10T06:36:07.214Z,14.86
2023-05-10T06:38:33.858Z,14.89
2023-05-10T06:41:00.233Z,14.86
2023-05-10T06:43:26.614Z,15.00
2023-05-10T06:45:52.958Z,15.01
2023-05-10T06:48:19.414Z,15.11
2023-05-10T06:50:46.284Z,15.13
2023-05-10T06:53:12.629Z,15.19
2023-05-10T06:55:38.991Z,15.20
2023-05-10T06:58:05.300Z,15.27
2023-05-10T07:00:31.703Z,15.28
2023-05-10T07:02:58.119Z,15.36
2023-05-10T07:05:24.534Z,15.38
2023-05-10T07:07:50.988Z,15.47
2023-05-10T07:10:17.293Z,15.46
2023-05-10T07:12:43.821Z,15.50
2023-05-10T07:15:10.191Z,15.52
2023-05-10T07:17:36.650Z,15.54
2023-05-10T07:20:03.045Z,15.52
2023-05-10T07:22:29.374Z,15.55
2023-05-10T07:24:55.687Z,15.57
2023-05-10T07:27:22.041Z,15.60
2023-05-10T07:29:48.365Z,15.63
2023-05-10T07:32:14.811Z,15.60
2023-05-10T07:34:41.189Z,15.67
2023-05-10T07:37:07.514Z,15.70
2023-05-10T07:39:33.846Z,15.76
2023-05-10T07:42:00.152Z,15.73
2023-05-10T07:44:26.475Z,15.78
2023-05-10T07:46:52.845Z,15.87
2023-05-10T07:49:19.244Z,15.90
2023-05-10T07:51:45.609Z,15.77
2023-05-10T07:54:11.969Z,16.00
2023-05-10T07:56:38.301Z,15.93
2023-05-10T07:59:04.611Z,16.05
2023-05-10T08:01:30.960Z,16.14
2023-05-10T08:03:57.330Z,16.15
2023-05-10T08:06:23.762Z,16.25
2023-05-10T08:08:50.212Z,16.29
2023-05-10T08:11:16.607Z,16.17
2023-05-10T08:13:42.939Z,16.19
2023-05-10T08:16:09.347Z,15.96
2023-05-10T08:18:35.713Z,15.92
2023-05-10T08:21:02.043Z,16.00
2023-05-10T08:23:28.375Z,15.90
2023-05-10T08:25:54.695Z,16.02
2023-05-10T08:28:21.020Z,16.03
2023-05-10T08:30:47.339Z,15.90
2023-05-10T08:33:13.691Z,15.93
2023-05-10T08:35:40.043Z,16.02
2023-05-10T08:38:06.361Z,16.14
2023-05-10T08:40:32.684Z,16.05
2023-05-10T08:42:59.025Z,15.95
2023-05-10T08:45:25.393Z,15.75
2023-05-10T08:47:51.741Z,15.83
2023-05-10T08:50:18.104Z,15.74
2023-05-10T08:52:44.450Z,15.68
2023-05-10T08:55:10.786Z,15.78
2023-05-10T08:57:37.139Z,15.74
2023-05-10T09:00:03.465Z,15.93
2023-05-10T09:02:29.863Z,15.82
2023-05-10T09:04:56.308Z,15.68
2023-05-10T09:07:22.701Z,15.82
2023-05-10T09:09:49.033Z,15.65
2023-05-10T09:12:15.379Z,15.71
2023-05-10T09:14:41.723Z,15.67
2023-05-10T09:17:08.121Z,15.71
2023-05-10T09:19:34.533Z,15.77
2023-05-10T09:22:00.863Z,15.54
2023-05-10T09:24:27.187Z,15.54
2023-05-10T09:26:53.525Z,15.49
2023-05-10T09:29:19.928Z,15.59
2023-05-10T09:31:46.266Z,15.75
2023-05-10T09:34:12.608Z,15.91
2023-05-10T09:36:38.950Z,15.55
2023-05-10T09:39:05.269Z,15.37
2023-05-10T09:41:31.680Z,15.56
2023-05-10T09:43:58.313Z,15.24
2023-05-10T09:46:24.836Z,15.45
2023-05-10T09:48:51.221Z,15.39
2023-05-10T09:51:19.838Z,14.95
2023-05-10T09:53:46.248Z,14.72
2023-05-10T09:56:12.635Z,14.72
2023-05-10T09:58:39.044Z,14.64
2023-05-10T10:01:05.633Z,14.76
2023-05-10T10:03:32.067Z,14.75
2023-05-10T10:05:58.482Z,14.87
2023-05-10T10:08:25.007Z,14.95
2023-05-10T10:10:51.442Z,15.02
2023-05-10T10:13:17.846Z,15.24
2023-05-10T10:15:44.388Z,15.39
2023-05-10T10:18:10.985Z,15.15
2023-05-10T10:20:37.442Z,15.09
2023-05-10T10:23:03.831Z,15.24
2023-05-10T10:25:30.271Z,15.53
2023-05-10T10:27:56.785Z,15.70
2023-05-10T10:30:23.197Z,15.58
2023-05-10T10:32:49.734Z,15.44
2023-05-10T10:35:16.332Z,15.71
2023-05-10T10:37:42.960Z,15.94
2023-05-10T10:40:09.407Z,16.05
2023-05-10T10:42:38.562Z,16.11
2023-05-10T10:45:04.941Z,16.16
2023-05-10T10:47:31.433Z,16.16
2023-05-10T10:49:57.880Z,16.14
2023-05-10T10:52:24.318Z,16.09
2023-05-10T10:54:50.752Z,16.08
2023-05-10T10:57:17.158Z,16.30
2023-05-10T10:59:43.524Z,16.44
2023-05-10T11:02:09.917Z,16.61
2023-05-10T11:04:36.328Z,16.70
2023-05-10T11:07:02.746Z,16.50
2023-05-10T11:09:29.158Z,16.28
2023-05-10T11:11:55.717Z,16.33
2023-05-10T11:14:22.180Z,16.59
2023-05-10T11:16:48.658Z,16.60
2023-05-10T11:19:15.187Z,16.64
2023-05-10T11:21:41.616Z,16.77
2023-05-10T11:24:08.062Z,16.65
2023-05-10T11:26:34.574Z,16.83
2023-05-10T11:29:01.021Z,16.97
2023-05-10T11:31:27.530Z,17.11
2023-05-10T11:33:54.076Z,17.12
2023-05-10T11:36:20.468Z,17.18
2023-05-10T11:38:46.787Z,17.22
2023-05-10T11:41:13.217Z,17.34
2023-05-10T11:43:39.643Z,17.39
2023-05-10T11:46:06.157Z,17.49
2023-05-10T11:48:32.538Z,17.62
2023-05-10T11:50:58.984Z,17.67
2023-05-10T11:53:25.916Z,17.64
2023-05-10T11:55:52.413Z,17.53
2023-05-10T11:58:18.860Z,17.51
2023-05-10T12:00:45.288Z,17.55
2023-05-10T12:03:11.768Z,17.67
2023-05-10T12:05:38.220Z,17.69
2023-05-10T12:08:04.573Z,17.57
2023-05-10T12:10:30.902Z,17.50
2023-05-10T12:12:57.316Z,17.42
2023-05-10T12:15:23.700Z,17.30
2023-05-10T12:17:50.126Z,17.42
2023-05-10T12:20:16.935Z,17.49
2023-05-10T12:22:43.560Z,17.45
2023-05-10T12:25:10.218Z,17.26
2023-05-10T12:27:36.615Z,17.13
2023-05-10T12:30:03.102Z,17.33
2023-05-10T12:32:29.663Z,17.47
2023-05-10T12:34:56.099Z,17.54
2023-05-10T12:37:22.453Z,17.57
2023-05-10T12:39:48.779Z,17.61
2023-05-10T12:42:15.210Z,17.63
2023-05-10T12:44:41.565Z,17.43
2023-05-10T12:47:07.905Z,17.40
2023-05-10T12:49:34.259Z,17.01
2023-05-10T12:52:00.591Z,16.84
2023-05-10T12:54:26.968Z,16.86
2023-05-10T12:56:53.341Z,16.89
2023-05-10T12:59:19.691Z,16.64
2023-05-10T13:01:46.208Z,16.76
2023-05-10T13:04:12.739Z,16.61
2023-05-10T13:06:39.090Z,16.75
2023-05-10T13:09:05.509Z,16.99
2023-05-10T13:11:31.947Z,17.13
2023-05-10T13:13:58.415Z,17.29
2023-05-10T13:16:24.915Z,17.45
2023-05-10T13:18:51.352Z,17.37
2023-05-10T13:21:17.815Z,17.43
2023-05-10T13:23:45.470Z,17.54
2023-05-10T13:26:11.878Z,17.37
2023-05-10T13:28:38.227Z,17.42
2023-05-10T13:31:04.709Z,17.42
2023-05-10T13:33:31.299Z,17.46
2023-05-10T13:35:57.773Z,17.41
2023-05-10T13:38:24.151Z,17.03
2023-05-10T13:40:50.744Z,16.98
2023-05-10T13:43:17.129Z,16.62
2023-05-10T13:45:43.505Z,16.52
2023-05-10T13:48:09.892Z,16.83
2023-05-10T13:50:36.232Z,16.87
2023-05-10T13:53:02.671Z,16.85
2023-05-10T13:55:29.073Z,16.99
2023-05-10T13:57:57.866Z,16.81
2023-05-10T14:00:24.190Z,16.46
2023-05-10T14:02:50.635Z,16.12
2023-05-10T14:05:18.734Z,16.39
2023-05-10T14:07:45.878Z,16.45
2023-05-10T14:10:12.203Z,16.49
2023-05-10T14:12:38.562Z,16.47
2023-05-10T14:15:04.934Z,16.23
2023-05-10T14:17:31.427Z,16.22
2023-05-10T14:19:57.919Z,16.30
2023-05-10T14:22:24.399Z,16.29
2023-05-10T14:24:50.769Z,16.39
2023-05-10T14:27:17.129Z,16.31
2023-05-10T14:29:43.536Z,16.20
2023-05-10T14:32:10.087Z,16.31
2023-05-10T14:34:36.553Z,16.32
2023-05-10T14:37:02.940Z,16.26
2023-05-10T14:39:29.262Z,16.12
2023-05-10T14:41:55.621Z,16.30
2023-05-10T14:44:21.940Z,16.30
2023-05-10T14:46:48.286Z,16.47
2023-05-10T14:49:14.687Z,16.62
2023-05-10T14:51:41.035Z,16.95
2023-05-10T14:54:07.435Z,16.87
2023-05-10T14:56:33.762Z,17.00
2023-05-10T14:59:00.165Z,17.20
2023-05-10T15:01:26.989Z,16.99
2023-05-10T15:03:53.930Z,17.19
2023-05-10T15:06:20.777Z,17.12
2023-05-10T15:08:47.181Z,17.14
2023-05-10T15:11:13.569Z,17.45
2023-05-10T15:13:39.921Z,17.52
2023-05-10T15:16:06.294Z,17.64
2023-05-10T15:18:35.177Z,17.76
2023-05-10T15:21:01.584Z,17.30
2023-05-10T15:23:28.009Z,17.18
2023-05-10T15:25:54.418Z,16.61
2023-05-10T15:28:20.770Z,16.23
2023-05-10T15:30:47.109Z,16.11
2023-05-10T15:35:56.814Z,16.34
2023-05-10T15:38:23.306Z,16.74
2023-05-10T15:40:49.732Z,16.93
2023-05-10T15:43:16.125Z,16.93
2023-05-10T15:45:42.562Z,17.15
2023-05-10T15:48:09.054Z,17.08
2023-05-10T15:50:35.418Z,17.21
2023-05-10T15:53:01.776Z,17.01
2023-05-10T15:55:28.150Z,16.71
2023-05-10T15:57:54.483Z,16.49
2023-05-10T16:00:20.812Z,16.18
2023-05-10T16:02:47.227Z,16.23
2023-05-10T16:05:13.694Z,16.36
2023-05-10T16:07:40.037Z,16.26
2023-05-10T16:10:06.443Z,16.33
2023-05-10T16:12:32.833Z,16.43
2023-05-10T16:14:59.202Z,16.43
2023-05-10T16:17:25.713Z,16.64
2023-05-10T16:19:52.118Z,16.48
2023-05-10T16:22:18.549Z,16.32
2023-05-10T16:24:44.930Z,16.37
2023-05-10T16:27:11.290Z,16.27
2023-05-10T16:29:37.696Z,16.34
2023-05-10T16:32:04.044Z,16.38
2023-05-10T16:34:30.386Z,16.67
2023-05-10T16:36:56.787Z,16.90
2023-05-10T16:39:23.218Z,17.21
2023-05-10T16:41:49.564Z,17.34
2023-05-10T16:44:16.839Z,17.31
2023-05-10T16:46:44.731Z,17.19
2023-05-10T16:49:11.410Z,17.24
2023-05-10T16:51:38.064Z,17.24
2023-05-10T16:54:04.460Z,17.18
2023-05-10T16:56:36.065Z,17.01
2023-05-10T16:59:02.488Z,17.06
2023-05-10T17:01:28.934Z,16.93
2023-05-10T17:03:55.377Z,16.57
2023-05-10T17:14:22.429Z,16.84
2023-05-10T17:16:48.914Z,17.02
2023-05-10T17:19:15.430Z,17.03
2023-05-10T17:21:41.832Z,16.89
2023-05-10T17:24:08.282Z,17.07
2023-05-10T17:26:34.811Z,17.20
2023-05-10T17:29:01.257Z,17.37
2023-05-10T17:31:27.706Z,17.18
2023-05-10T17:33:54.182Z,17.34
2023-05-10T17:36:20.589Z,17.39
2023-05-10T17:41:33.992Z,17.08
2023-05-10T17:44:00.364Z,17.18
2023-05-10T17:46:26.795Z,17.32
2023-05-10T17:48:56.312Z,17.25
2023-05-10T17:51:24.858Z,17.26
2023-05-10T17:56:26.515Z,17.42
2023-05-10T17:58:55.100Z,17.47
2023-05-10T18:01:21.569Z,17.66
2023-05-10T18:03:48.122Z,17.80
2023-05-10T18:06:14.546Z,17.92
2023-05-10T18:08:40.908Z,18.09
2023-05-10T18:11:07.317Z,18.18
2023-05-10T18:13:33.691Z,18.13
2023-05-10T18:16:00.113Z,18.13
2023-05-10T18:18:26.517Z,18.05
2023-05-10T18:20:53.028Z,17.85
2023-05-10T18:23:19.498Z,17.74
2023-05-10T18:25:45.906Z,17.65
2023-05-10T18:28:12.357Z,17.60
2023-05-10T18:30:38.744Z,17.54
2023-05-10T18:33:05.188Z,17.47
2023-05-10T18:35:31.564Z,17.42
2023-05-10T18:37:58.030Z,17.40
2023-05-10T18:40:24.460Z,17.36
2023-05-10T18:42:50.838Z,17.24
2023-05-10T18:45:17.466Z,17.22
2023-05-10T18:47:44.156Z,17.22
2023-05-10T18:50:10.700Z,17.18
2023-05-10T18:52:37.168Z,17.02
2023-05-10T18:55:03.558Z,17.09
2023-05-10T18:57:31.234Z,17.09
2023-05-10T18:59:57.659Z,17.08
2023-05-10T19:02:24.220Z,17.04
2023-05-10T19:04:50.753Z,16.98
2023-05-10T19:07:17.388Z,16.88
2023-05-10T19:09:43.878Z,16.88
2023-05-10T19:12:10.208Z,16.85
2023-05-10T19:14:47.097Z,16.72
2023-05-10T19:19:42.866Z,16.57
2023-05-10T19:22:12.146Z,16.63
2023-05-10T19:27:14.988Z,16.61
2023-05-10T19:29:41.709Z,16.58
2023-05-10T19:32:08.131Z,16.57
2023-05-10T19:34:34.545Z,16.59
2023-05-10T19:37:03.998Z,16.57
2023-05-10T19:42:16.388Z,16.58
2023-05-10T19:44:42.849Z,16.60
2023-05-10T19:47:09.348Z,16.54
2023-05-10T19:49:35.856Z,16.55
2023-05-10T19:52:02.321Z,16.51
2023-05-10T19:54:28.754Z,16.52
2023-05-10T19:57:04.074Z,16.53
2023-05-10T19:59:30.532Z,16.51
2023-05-10T20:01:56.959Z,16.48
2023-05-10T20:04:23.372Z,16.37
2023-05-10T20:06:49.855Z,16.36
2023-05-10T20:09:16.227Z,16.33
2023-05-10T20:11:42.566Z,16.27
2023-05-10T20:14:09.003Z,16.27
2023-05-10T20:16:35.395Z,16.32
2023-05-10T20:19:01.806Z,16.37
2023-05-10T20:21:28.221Z,16.39
2023-05-10T20:23:54.666Z,16.35
2023-05-10T20:26:20.996Z,16.29
2023-05-10T20:28:47.346Z,16.23
2023-05-10T20:31:13.689Z,16.17
2023-05-10T20:33:40.153Z,16.12
2023-05-10T20:36:06.499Z,16.08
2023-05-10T20:38:32.830Z,16.09
2023-05-10T20:40:59.155Z,16.08
2023-05-10T20:43:25.470Z,16.06
2023-05-10T20:45:51.881Z,16.02
2023-05-10T20:48:18.264Z,16.02
2023-05-10T20:50:44.589Z,15.99
2023-05-10T20:53:10.985Z,15.97
2023-05-10T20:55:37.576Z,15.95
2023-05-10T20:58:05.089Z,15.98
2023-05-10T21:00:31.688Z,16.03
2023-05-10T21:02:58.025Z,16.00
2023-05-10T21:05:24.427Z,15.95
2023-05-10T21:07:50.850Z,15.99
2023-05-10T21:10:17.478Z,16.05
2023-05-10T21:12:44.002Z,16.01
2023-05-10T21:15:10.367Z,16.00
2023-05-10T21:17:36.730Z,15.97
2023-05-10T21:20:03.119Z,15.94
2023-05-10T21:22:29.492Z,15.92
2023-05-10T21:24:55.829Z,15.91
2023-05-10T21:27:22.162Z,15.73
2023-05-10T21:29:48.507Z,15.75
2023-05-10T21:32:14.897Z,15.79
2023-05-10T21:34:41.337Z,15.78
2023-05-10T21:37:07.711Z,15.73
2023-05-10T21:39:34.275Z,15.63
2023-05-10T21:42:00.613Z,15.64
2023-05-10T21:44:26.965Z,15.57
2023-05-10T21:46:53.278Z,15.55
2023-05-10T21:49:19.630Z,15.56
2023-05-10T21:51:45.976Z,15.56
2023-05-10T21:54:12.427Z,15.59
2023-05-10T21:56:38.872Z,15.63
2023-05-10T21:59:05.710Z,15.65
2023-05-10T22:01:32.086Z,15.64
2023-05-10T22:03:58.466Z,15.60
2023-05-10T22:06:24.797Z,15.52
2023-05-10T22:08:51.134Z,15.52
2023-05-10T22:11:17.451Z,15.49
2023-05-10T22:13:43.764Z,15.46
2023-05-10T22:16:10.093Z,15.46
2023-05-10T22:18:36.444Z,15.49
2023-05-10T22:21:02.788Z,15.50
2023-05-10T22:23:29.120Z,15.52
2023-05-10T22:25:55.529Z,15.62
2023-05-10T22:28:21.893Z,15.65
2023-05-10T22:30:48.307Z,15.64
2023-05-10T22:33:14.672Z,15.68
2023-05-10T22:35:41.016Z,15.74
2023-05-10T22:38:07.405Z,15.73
2023-05-10T22:40:33.735Z,15.74
2023-05-10T22:43:00.085Z,15.73
2023-05-10T22:45:26.406Z,15.58
2023-05-10T22:47:52.885Z,15.40
2023-05-10T22:50:19.616Z,15.31
2023-05-10T22:52:46.185Z,15.44
2023-05-10T22:55:12.531Z,15.47
2023-05-10T22:57:38.897Z,15.48
2023-05-10T23:00:05.539Z,15.51
2023-05-10T23:02:33.015Z,15.53
2023-05-10T23:04:59.389Z,15.51
2023-05-10T23:07:25.917Z,15.49
2023-05-10T23:09:52.311Z,15.49
2023-05-10T23:12:18.654Z,15.47
2023-05-10T23:14:45.026Z,15.46
2023-05-10T23:17:11.342Z,15.46
2023-05-10T23:19:37.704Z,15.48
2023-05-10T23:22:04.066Z,15.47
2023-05-10T23:24:30.392Z,15.47
2023-05-10T23:26:56.727Z,15.44
2023-05-10T23:29:23.117Z,15.39
2023-05-10T23:31:49.492Z,15.35
2023-05-10T23:34:15.822Z,15.33
2023-05-10T23:36:42.188Z,15.28
2023-05-10T23:39:08.545Z,15.28
2023-05-10T23:41:34.856Z,15.32
2023-05-10T23:44:01.222Z,15.38
2023-05-10T23:46:27.553Z,15.37
2023-05-10T23:48:53.874Z,15.39
2023-05-10T23:51:20.175Z,15.34
2023-05-10T23:53:46.523Z,15.42
2023-05-10T23:56:12.867Z,15.42
2023-05-10T23:58:39.189Z,15.47
